sensor_id;sensor_type;location;lat;lon;timestamp;P1;durP1;ratioP1;P2;durP2;ratioP2
9124;SDS011;4597;48.730;9.114;2023-07-02T00:00:53;3.50;;;3.20;;
9124;SDS011;4597;48.730;9.114;2023-07-02T00:03:19;3.33;;;3.10;;
9124;SDS011;4597;48.730;9.114;2023-07-02T00:05:46;3.27;;;3.07;;
9124;SDS011;4597;48.730;9.114;2023-07-02T00:08:15;3.40;;;3.20;;
9124;SDS011;4597;48.730;9.114;2023-07-02T00:10:40;3.97;;;3.10;;
9124;SDS011;4597;48.730;9.114;2023-07-02T00:13:06;3.20;;;3.00;;
9124;SDS011;4597;48.730;9.114;2023-07-02T00:15:32;3.67;;;2.80;;
9124;SDS011;4597;48.730;9.114;2023-07-02T00:17:57;3.10;;;2.90;;
9124;SDS011;4597;48.730;9.114;2023-07-02T00:20:23;2.90;;;2.77;;
9124;SDS011;4597;48.730;9.114;2023-07-02T00:22:49;2.90;;;2.70;;
9124;SDS011;4597;48.730;9.114;2023-07-02T00:25:15;3.13;;;2.90;;
9124;SDS011;4597;48.730;9.114;2023-07-02T00:27:40;4.23;;;2.90;;
9124;SDS011;4597;48.730;9.114;2023-07-02T00:30:06;3.20;;;2.90;;
9124;SDS011;4597;48.730;9.114;2023-07-02T00:32:32;3.70;;;3.03;;
9124;SDS011;4597;48.730;9.114;2023-07-02T00:34:58;3.87;;;3.47;;
9124;SDS011;4597;48.730;9.114;2023-07-02T00:37:24;3.40;;;3.10;;
9124;SDS011;4597;48.730;9.114;2023-07-02T00:39:49;3.17;;;2.97;;
9124;SDS011;4597;48.730;9.114;2023-07-02T00:42:15;3.37;;;3.07;;
9124;SDS011;4597;48.730;9.114;2023-07-02T00:44:41;2.93;;;2.73;;
9124;SDS011;4597;48.730;9.114;2023-07-02T00:47:08;2.87;;;2.67;;
9124;SDS011;4597;48.730;9.114;2023-07-02T00:49:35;3.80;;;3.00;;
9124;SDS011;4597;48.730;9.114;2023-07-02T00:52:01;3.43;;;3.13;;
9124;SDS011;4597;48.730;9.114;2023-07-02T00:54:30;3.00;;;2.80;;
9124;SDS011;4597;48.730;9.114;2023-07-02T00:56:56;3.63;;;2.90;;
9124;SDS011;4597;48.730;9.114;2023-07-02T00:59:27;3.20;;;2.80;;
9124;SDS011;4597;48.730;9.114;2023-07-02T01:01:54;3.00;;;2.80;;
9124;SDS011;4597;48.730;9.114;2023-07-02T01:04:21;3.07;;;2.87;;
9124;SDS011;4597;48.730;9.114;2023-07-02T01:06:52;3.07;;;2.87;;
9124;SDS011;4597;48.730;9.114;2023-07-02T01:09:22;2.97;;;2.77;;
9124;SDS011;4597;48.730;9.114;2023-07-02T01:11:53;3.10;;;2.90;;
9124;SDS011;4597;48.730;9.114;2023-07-02T01:16:50;3.27;;;3.07;;
9124;SDS011;4597;48.730;9.114;2023-07-02T01:22:08;3.77;;;3.07;;
9124;SDS011;4597;48.730;9.114;2023-07-02T01:24:41;3.20;;;3.00;;
9124;SDS011;4597;48.730;9.114;2023-07-02T01:27:07;3.10;;;2.90;;
9124;SDS011;4597;48.730;9.114;2023-07-02T01:29:32;2.77;;;2.67;;
9124;SDS011;4597;48.730;9.114;2023-07-02T01:32:01;3.23;;;2.80;;
9124;SDS011;4597;48.730;9.114;2023-07-02T01:34:28;3.37;;;3.03;;
9124;SDS011;4597;48.730;9.114;2023-07-02T01:36:53;3.10;;;2.80;;
9124;SDS011;4597;48.730;9.114;2023-07-02T01:39:19;3.13;;;2.87;;
9124;SDS011;4597;48.730;9.114;2023-07-02T01:41:54;3.13;;;2.93;;
9124;SDS011;4597;48.730;9.114;2023-07-02T01:44:31;3.20;;;3.00;;
9124;SDS011;4597;48.730;9.114;2023-07-02T01:46:57;2.97;;;2.77;;
9124;SDS011;4597;48.730;9.114;2023-07-02T01:49:23;3.10;;;2.80;;
9124;SDS011;4597;48.730;9.114;2023-07-02T01:51:52;4.33;;;3.47;;
9124;SDS011;4597;48.730;9.114;2023-07-02T01:54:19;2.90;;;2.70;;
9124;SDS011;4597;48.730;9.114;2023-07-02T01:56:47;3.40;;;3.10;;
9124;SDS011;4597;48.730;9.114;2023-07-02T01:59:13;3.30;;;3.00;;
9124;SDS011;4597;48.730;9.114;2023-07-02T02:01:39;3.57;;;3.23;;
9124;SDS011;4597;48.730;9.114;2023-07-02T02:04:08;2.80;;;2.70;;
9124;SDS011;4597;48.730;9.114;2023-07-02T02:06:34;3.40;;;3.07;;
9124;SDS011;4597;48.730;9.114;2023-07-02T02:09:01;3.53;;;3.23;;
9124;SDS011;4597;48.730;9.114;2023-07-02T02:11:29;4.53;;;3.10;;
9124;SDS011;4597;48.730;9.114;2023-07-02T02:13:55;3.43;;;3.13;;
9124;SDS011;4597;48.730;9.114;2023-07-02T02:16:21;3.20;;;2.90;;
9124;SDS011;4597;48.730;9.114;2023-07-02T02:18:47;3.87;;;3.30;;
9124;SDS011;4597;48.730;9.114;2023-07-02T02:21:12;3.40;;;3.00;;
9124;SDS011;4597;48.730;9.114;2023-07-02T02:23:38;3.70;;;3.40;;
9124;SDS011;4597;48.730;9.114;2023-07-02T02:26:03;3.37;;;3.07;;
9124;SDS011;4597;48.730;9.114;2023-07-02T02:28:29;2.83;;;2.63;;
9124;SDS011;4597;48.730;9.114;2023-07-02T02:30:54;3.07;;;2.87;;
9124;SDS011;4597;48.730;9.114;2023-07-02T02:33:21;3.57;;;3.27;;
9124;SDS011;4597;48.730;9.114;2023-07-02T02:35:47;3.00;;;2.80;;
9124;SDS011;4597;48.730;9.114;2023-07-02T02:38:13;3.57;;;3.27;;
9124;SDS011;4597;48.730;9.114;2023-07-02T02:40:39;3.70;;;3.40;;
9124;SDS011;4597;48.730;9.114;2023-07-02T02:43:05;6.47;;;2.97;;
9124;SDS011;4597;48.730;9.114;2023-07-02T02:45:30;4.03;;;3.60;;
9124;SDS011;4597;48.730;9.114;2023-07-02T02:47:56;4.17;;;3.40;;
9124;SDS011;4597;48.730;9.114;2023-07-02T02:50:21;3.43;;;3.10;;
9124;SDS011;4597;48.730;9.114;2023-07-02T02:52:47;4.37;;;3.10;;
9124;SDS011;4597;48.730;9.114;2023-07-02T02:55:12;4.97;;;3.00;;
9124;SDS011;4597;48.730;9.114;2023-07-02T02:57:38;4.23;;;3.13;;
9124;SDS011;4597;48.730;9.114;2023-07-02T03:00:04;4.33;;;3.53;;
9124;SDS011;4597;48.730;9.114;2023-07-02T03:02:30;5.40;;;4.10;;
9124;SDS011;4597;48.730;9.114;2023-07-02T03:04:55;4.63;;;3.63;;
9124;SDS011;4597;48.730;9.114;2023-07-02T03:07:22;4.17;;;3.77;;
9124;SDS011;4597;48.730;9.114;2023-07-02T03:09:47;5.17;;;4.07;;
9124;SDS011;4597;48.730;9.114;2023-07-02T03:12:13;6.87;;;4.23;;
9124;SDS011;4597;48.730;9.114;2023-07-02T03:14:39;5.00;;;3.90;;
9124;SDS011;4597;48.730;9.114;2023-07-02T03:17:04;7.73;;;4.43;;
9124;SDS011;4597;48.730;9.114;2023-07-02T03:19:30;4.13;;;3.50;;
9124;SDS011;4597;48.730;9.114;2023-07-02T03:21:55;4.83;;;4.20;;
9124;SDS011;4597;48.730;9.114;2023-07-02T03:24:21;6.07;;;3.73;;
9124;SDS011;4597;48.730;9.114;2023-07-02T03:26:46;7.47;;;3.93;;
9124;SDS011;4597;48.730;9.114;2023-07-02T03:29:12;4.40;;;4.00;;
9124;SDS011;4597;48.730;9.114;2023-07-02T03:31:37;5.07;;;3.87;;
9124;SDS011;4597;48.730;9.114;2023-07-02T03:34:05;5.00;;;3.90;;
9124;SDS011;4597;48.730;9.114;2023-07-02T03:36:32;4.90;;;3.67;;
9124;SDS011;4597;48.730;9.114;2023-07-02T03:38:58;5.27;;;4.23;;
9124;SDS011;4597;48.730;9.114;2023-07-02T03:41:23;5.37;;;3.90;;
9124;SDS011;4597;48.730;9.114;2023-07-02T03:43:49;5.87;;;4.43;;
9124;SDS011;4597;48.730;9.114;2023-07-02T03:46:14;8.03;;;5.03;;
9124;SDS011;4597;48.730;9.114;2023-07-02T03:48:40;8.37;;;4.73;;
9124;SDS011;4597;48.730;9.114;2023-07-02T03:51:06;10.77;;;5.20;;
9124;SDS011;4597;48.730;9.114;2023-07-02T03:53:31;5.97;;;4.53;;
9124;SDS011;4597;48.730;9.114;2023-07-02T03:55:57;5.80;;;4.63;;
9124;SDS011;4597;48.730;9.114;2023-07-02T03:58:22;6.63;;;4.40;;
9124;SDS011;4597;48.730;9.114;2023-07-02T04:00:48;6.70;;;4.77;;
9124;SDS011;4597;48.730;9.114;2023-07-02T04:03:17;5.90;;;4.47;;
9124;SDS011;4597;48.730;9.114;2023-07-02T04:05:42;5.73;;;4.90;;
9124;SDS011;4597;48.730;9.114;2023-07-02T04:08:08;5.07;;;4.17;;
9124;SDS011;4597;48.730;9.114;2023-07-02T04:10:34;7.67;;;4.63;;
9124;SDS011;4597;48.730;9.114;2023-07-02T04:13:00;9.70;;;4.23;;
9124;SDS011;4597;48.730;9.114;2023-07-02T04:15:25;4.73;;;3.83;;
9124;SDS011;4597;48.730;9.114;2023-07-02T04:17:51;6.53;;;4.00;;
9124;SDS011;4597;48.730;9.114;2023-07-02T04:20:17;4.73;;;3.73;;
9124;SDS011;4597;48.730;9.114;2023-07-02T04:22:44;5.47;;;3.70;;
9124;SDS011;4597;48.730;9.114;2023-07-02T04:25:09;5.43;;;3.60;;
9124;SDS011;4597;48.730;9.114;2023-07-02T04:27:36;4.90;;;3.40;;
9124;SDS011;4597;48.730;9.114;2023-07-02T04:30:01;4.43;;;3.30;;
9124;SDS011;4597;48.730;9.114;2023-07-02T04:32:28;4.13;;;2.97;;
9124;SDS011;4597;48.730;9.114;2023-07-02T04:34:53;4.60;;;3.30;;
9124;SDS011;4597;48.730;9.114;2023-07-02T04:37:19;4.77;;;3.33;;
9124;SDS011;4597;48.730;9.114;2023-07-02T04:39:47;6.53;;;3.30;;
9124;SDS011;4597;48.730;9.114;2023-07-02T04:42:12;4.70;;;3.40;;
9124;SDS011;4597;48.730;9.114;2023-07-02T04:44:39;5.27;;;3.30;;
9124;SDS011;4597;48.730;9.114;2023-07-02T04:47:08;4.90;;;3.30;;
9124;SDS011;4597;48.730;9.114;2023-07-02T04:49:33;5.93;;;3.20;;
9124;SDS011;4597;48.730;9.114;2023-07-02T04:51:59;4.93;;;3.83;;
9124;SDS011;4597;48.730;9.114;2023-07-02T04:54:24;4.80;;;3.87;;
9124;SDS011;4597;48.730;9.114;2023-07-02T04:56:50;5.77;;;3.30;;
9124;SDS011;4597;48.730;9.114;2023-07-02T04:59:16;3.93;;;3.63;;
9124;SDS011;4597;48.730;9.114;2023-07-02T05:01:41;3.27;;;2.97;;
9124;SDS011;4597;48.730;9.114;2023-07-02T05:04:09;5.70;;;3.63;;
9124;SDS011;4597;48.730;9.114;2023-07-02T05:06:38;5.60;;;3.33;;
9124;SDS011;4597;48.730;9.114;2023-07-02T05:09:04;6.57;;;3.87;;
9124;SDS011;4597;48.730;9.114;2023-07-02T05:11:30;7.30;;;4.33;;
9124;SDS011;4597;48.730;9.114;2023-07-02T05:13:55;6.70;;;4.93;;
9124;SDS011;4597;48.730;9.114;2023-07-02T05:16:21;6.27;;;4.37;;
9124;SDS011;4597;48.730;9.114;2023-07-02T05:18:46;5.87;;;4.20;;
9124;SDS011;4597;48.730;9.114;2023-07-02T05:21:12;5.13;;;3.93;;
9124;SDS011;4597;48.730;9.114;2023-07-02T05:23:37;5.50;;;4.03;;
9124;SDS011;4597;48.730;9.114;2023-07-02T05:26:03;6.23;;;3.73;;
9124;SDS011;4597;48.730;9.114;2023-07-02T05:28:28;5.50;;;3.80;;
9124;SDS011;4597;48.730;9.114;2023-07-02T05:30:54;5.23;;;4.17;;
9124;SDS011;4597;48.730;9.114;2023-07-02T05:33:20;5.13;;;3.93;;
9124;SDS011;4597;48.730;9.114;2023-07-02T05:35:47;5.93;;;3.83;;
9124;SDS011;4597;48.730;9.114;2023-07-02T05:38:12;6.63;;;4.57;;
9124;SDS011;4597;48.730;9.114;2023-07-02T05:40:38;6.17;;;4.40;;
9124;SDS011;4597;48.730;9.114;2023-07-02T05:43:04;9.07;;;5.13;;
9124;SDS011;4597;48.730;9.114;2023-07-02T05:45:29;8.60;;;4.50;;
9124;SDS011;4597;48.730;9.114;2023-07-02T05:47:55;6.90;;;4.20;;
9124;SDS011;4597;48.730;9.114;2023-07-02T05:50:20;4.70;;;4.07;;
9124;SDS011;4597;48.730;9.114;2023-07-02T05:52:46;6.03;;;4.30;;
9124;SDS011;4597;48.730;9.114;2023-07-02T05:55:11;6.60;;;4.27;;
9124;SDS011;4597;48.730;9.114;2023-07-02T05:57:37;7.50;;;4.07;;
9124;SDS011;4597;48.730;9.114;2023-07-02T06:00:06;7.70;;;4.40;;
9124;SDS011;4597;48.730;9.114;2023-07-02T06:02:32;5.90;;;4.40;;
9124;SDS011;4597;48.730;9.114;2023-07-02T06:04:58;7.33;;;4.50;;
9124;SDS011;4597;48.730;9.114;2023-07-02T06:07:24;6.50;;;4.50;;
9124;SDS011;4597;48.730;9.114;2023-07-02T06:09:50;7.20;;;4.87;;
9124;SDS011;4597;48.730;9.114;2023-07-02T06:12:15;5.70;;;4.47;;
9124;SDS011;4597;48.730;9.114;2023-07-02T06:14:41;6.20;;;5.33;;
9124;SDS011;4597;48.730;9.114;2023-07-02T06:17:07;7.50;;;5.23;;
9124;SDS011;4597;48.730;9.114;2023-07-02T06:19:33;7.27;;;5.37;;
9124;SDS011;4597;48.730;9.114;2023-07-02T06:21:59;7.70;;;5.43;;
9124;SDS011;4597;48.730;9.114;2023-07-02T06:24:24;7.97;;;5.70;;
9124;SDS011;4597;48.730;9.114;2023-07-02T06:26:50;8.80;;;5.43;;
9124;SDS011;4597;48.730;9.114;2023-07-02T06:29:15;9.00;;;5.57;;
9124;SDS011;4597;48.730;9.114;2023-07-02T06:31:41;8.03;;;5.63;;
9124;SDS011;4597;48.730;9.114;2023-07-02T06:34:06;8.70;;;5.83;;
9124;SDS011;4597;48.730;9.114;2023-07-02T06:36:33;11.53;;;5.53;;
9124;SDS011;4597;48.730;9.114;2023-07-02T06:38:59;6.93;;;5.03;;
9124;SDS011;4597;48.730;9.114;2023-07-02T06:41:24;9.13;;;5.17;;
9124;SDS011;4597;48.730;9.114;2023-07-02T06:43:50;7.10;;;5.50;;
9124;SDS011;4597;48.730;9.114;2023-07-02T06:46:16;10.23;;;5.40;;
9124;SDS011;4597;48.730;9.114;2023-07-02T06:48:41;8.90;;;5.43;;
9124;SDS011;4597;48.730;9.114;2023-07-02T06:51:07;5.97;;;5.10;;
9124;SDS011;4597;48.730;9.114;2023-07-02T06:53:33;6.43;;;5.03;;
9124;SDS011;4597;48.730;9.114;2023-07-02T06:55:59;6.80;;;5.07;;
9124;SDS011;4597;48.730;9.114;2023-07-02T06:58:24;8.73;;;5.63;;
9124;SDS011;4597;48.730;9.114;2023-07-02T07:00:50;8.57;;;5.90;;
9124;SDS011;4597;48.730;9.114;2023-07-02T07:03:16;6.57;;;5.50;;
9124;SDS011;4597;48.730;9.114;2023-07-02T07:05:41;10.07;;;6.33;;
9124;SDS011;4597;48.730;9.114;2023-07-02T07:08:07;11.03;;;5.73;;
9124;SDS011;4597;48.730;9.114;2023-07-02T07:10:32;9.37;;;6.00;;
9124;SDS011;4597;48.730;9.114;2023-07-02T07:13:00;9.57;;;6.57;;
9124;SDS011;4597;48.730;9.114;2023-07-02T07:15:26;7.40;;;5.67;;
9124;SDS011;4597;48.730;9.114;2023-07-02T07:17:52;10.57;;;5.77;;
9124;SDS011;4597;48.730;9.114;2023-07-02T07:20:18;9.57;;;6.23;;
9124;SDS011;4597;48.730;9.114;2023-07-02T07:22:43;9.23;;;7.13;;
9124;SDS011;4597;48.730;9.114;2023-07-02T07:25:09;11.87;;;7.43;;
9124;SDS011;4597;48.730;9.114;2023-07-02T07:27:35;10.23;;;7.70;;
9124;SDS011;4597;48.730;9.114;2023-07-02T07:30:00;13.60;;;7.77;;
9124;SDS011;4597;48.730;9.114;2023-07-02T07:32:26;9.47;;;7.40;;
9124;SDS011;4597;48.730;9.114;2023-07-02T07:34:51;9.27;;;7.70;;
9124;SDS011;4597;48.730;9.114;2023-07-02T07:37:17;9.07;;;7.37;;
9124;SDS011;4597;48.730;9.114;2023-07-02T07:39:42;10.17;;;8.10;;
9124;SDS011;4597;48.730;9.114;2023-07-02T07:42:08;10.53;;;7.70;;
9124;SDS011;4597;48.730;9.114;2023-07-02T07:44:33;10.87;;;8.13;;
9124;SDS011;4597;48.730;9.114;2023-07-02T07:46:59;10.90;;;8.20;;
9124;SDS011;4597;48.730;9.114;2023-07-02T07:49:24;10.13;;;8.13;;
9124;SDS011;4597;48.730;9.114;2023-07-02T07:51:50;11.77;;;9.03;;
9124;SDS011;4597;48.730;9.114;2023-07-02T07:54:16;11.63;;;9.30;;
9124;SDS011;4597;48.730;9.114;2023-07-02T07:56:42;13.10;;;9.87;;
9124;SDS011;4597;48.730;9.114;2023-07-02T07:59:07;13.30;;;8.90;;
9124;SDS011;4597;48.730;9.114;2023-07-02T08:01:33;15.87;;;9.97;;
9124;SDS011;4597;48.730;9.114;2023-07-02T08:03:59;13.93;;;9.17;;
9124;SDS011;4597;48.730;9.114;2023-07-02T08:06:24;9.97;;;8.87;;
9124;SDS011;4597;48.730;9.114;2023-07-02T08:08:50;13.37;;;10.50;;
9124;SDS011;4597;48.730;9.114;2023-07-02T08:11:15;15.80;;;11.17;;
9124;SDS011;4597;48.730;9.114;2023-07-02T08:13:42;14.67;;;10.83;;
9124;SDS011;4597;48.730;9.114;2023-07-02T08:16:07;16.97;;;11.63;;
9124;SDS011;4597;48.730;9.114;2023-07-02T08:18:34;19.07;;;12.87;;
9124;SDS011;4597;48.730;9.114;2023-07-02T08:21:00;19.60;;;12.47;;
9124;SDS011;4597;48.730;9.114;2023-07-02T08:23:25;20.07;;;12.67;;
9124;SDS011;4597;48.730;9.114;2023-07-02T08:25:51;17.50;;;12.90;;
9124;SDS011;4597;48.730;9.114;2023-07-02T08:28:16;18.80;;;13.20;;
9124;SDS011;4597;48.730;9.114;2023-07-02T08:30:43;19.97;;;13.63;;
9124;SDS011;4597;48.730;9.114;2023-07-02T08:33:08;18.87;;;13.47;;
9124;SDS011;4597;48.730;9.114;2023-07-02T08:35:34;21.67;;;13.63;;
9124;SDS011;4597;48.730;9.114;2023-07-02T08:37:59;17.57;;;12.97;;
9124;SDS011;4597;48.730;9.114;2023-07-02T08:40:25;20.20;;;14.53;;
9124;SDS011;4597;48.730;9.114;2023-07-02T08:42:50;22.53;;;13.40;;
9124;SDS011;4597;48.730;9.114;2023-07-02T08:45:16;20.47;;;14.27;;
9124;SDS011;4597;48.730;9.114;2023-07-02T08:47:43;19.20;;;13.10;;
9124;SDS011;4597;48.730;9.114;2023-07-02T08:50:10;17.73;;;13.13;;
9124;SDS011;4597;48.730;9.114;2023-07-02T08:52:37;19.80;;;14.30;;
9124;SDS011;4597;48.730;9.114;2023-07-02T08:55:03;20.17;;;14.30;;
9124;SDS011;4597;48.730;9.114;2023-07-02T08:57:28;21.27;;;14.27;;
9124;SDS011;4597;48.730;9.114;2023-07-02T08:59:54;20.80;;;14.57;;
9124;SDS011;4597;48.730;9.114;2023-07-02T09:02:29;22.10;;;14.73;;
9124;SDS011;4597;48.730;9.114;2023-07-02T09:05:00;23.67;;;15.60;;
9124;SDS011;4597;48.730;9.114;2023-07-02T09:07:26;19.03;;;14.63;;
9124;SDS011;4597;48.730;9.114;2023-07-02T09:09:51;20.10;;;14.93;;
9124;SDS011;4597;48.730;9.114;2023-07-02T09:12:26;21.43;;;14.27;;
9124;SDS011;4597;48.730;9.114;2023-07-02T09:14:57;19.47;;;13.97;;
9124;SDS011;4597;48.730;9.114;2023-07-02T09:17:26;19.17;;;14.97;;
9124;SDS011;4597;48.730;9.114;2023-07-02T09:19:57;22.03;;;15.07;;
9124;SDS011;4597;48.730;9.114;2023-07-02T09:22:25;20.57;;;14.90;;
9124;SDS011;4597;48.730;9.114;2023-07-02T09:24:54;21.70;;;16.13;;
9124;SDS011;4597;48.730;9.114;2023-07-02T09:27:32;22.07;;;16.53;;
9124;SDS011;4597;48.730;9.114;2023-07-02T09:30:10;21.70;;;14.43;;
9124;SDS011;4597;48.730;9.114;2023-07-02T09:32:38;21.77;;;15.40;;
9124;SDS011;4597;48.730;9.114;2023-07-02T09:35:04;21.93;;;15.47;;
9124;SDS011;4597;48.730;9.114;2023-07-02T09:37:30;23.23;;;16.27;;
9124;SDS011;4597;48.730;9.114;2023-07-02T09:39:56;21.50;;;16.60;;
9124;SDS011;4597;48.730;9.114;2023-07-02T09:42:22;23.87;;;15.40;;
9124;SDS011;4597;48.730;9.114;2023-07-02T09:44:51;18.83;;;15.13;;
9124;SDS011;4597;48.730;9.114;2023-07-02T09:47:18;21.37;;;15.50;;
9124;SDS011;4597;48.730;9.114;2023-07-02T09:49:52;21.43;;;15.07;;
9124;SDS011;4597;48.730;9.114;2023-07-02T09:52:18;20.37;;;15.10;;
9124;SDS011;4597;48.730;9.114;2023-07-02T09:54:45;20.53;;;15.67;;
9124;SDS011;4597;48.730;9.114;2023-07-02T09:57:10;20.73;;;15.20;;
9124;SDS011;4597;48.730;9.114;2023-07-02T09:59:37;20.03;;;14.60;;
9124;SDS011;4597;48.730;9.114;2023-07-02T10:02:03;18.93;;;14.33;;
9124;SDS011;4597;48.730;9.114;2023-07-02T10:04:38;20.20;;;15.27;;
9124;SDS011;4597;48.730;9.114;2023-07-02T10:07:08;20.87;;;15.37;;
9124;SDS011;4597;48.730;9.114;2023-07-02T10:09:35;16.57;;;13.57;;
9124;SDS011;4597;48.730;9.114;2023-07-02T10:12:17;19.50;;;14.50;;
9124;SDS011;4597;48.730;9.114;2023-07-02T10:14:44;19.23;;;14.50;;
9124;SDS011;4597;48.730;9.114;2023-07-02T10:17:22;21.43;;;14.00;;
9124;SDS011;4597;48.730;9.114;2023-07-02T10:20:04;18.63;;;14.67;;
9124;SDS011;4597;48.730;9.114;2023-07-02T10:22:42;17.50;;;13.50;;
9124;SDS011;4597;48.730;9.114;2023-07-02T10:25:08;17.10;;;13.97;;
9124;SDS011;4597;48.730;9.114;2023-07-02T10:27:38;20.20;;;15.03;;
9124;SDS011;4597;48.730;9.114;2023-07-02T10:30:05;18.80;;;14.10;;
9124;SDS011;4597;48.730;9.114;2023-07-02T10:32:32;15.50;;;13.77;;
9124;SDS011;4597;48.730;9.114;2023-07-02T10:34:59;18.87;;;14.63;;
9124;SDS011;4597;48.730;9.114;2023-07-02T10:37:41;18.87;;;14.57;;
9124;SDS011;4597;48.730;9.114;2023-07-02T10:40:07;16.90;;;14.00;;
9124;SDS011;4597;48.730;9.114;2023-07-02T10:42:44;17.23;;;14.17;;
9124;SDS011;4597;48.730;9.114;2023-07-02T10:45:13;19.40;;;14.87;;
9124;SDS011;4597;48.730;9.114;2023-07-02T10:47:39;17.10;;;13.50;;
9124;SDS011;4597;48.730;9.114;2023-07-02T10:50:18;17.97;;;14.63;;
9124;SDS011;4597;48.730;9.114;2023-07-02T10:52:45;20.13;;;15.43;;
9124;SDS011;4597;48.730;9.114;2023-07-02T10:55:15;21.90;;;14.57;;
9124;SDS011;4597;48.730;9.114;2023-07-02T10:57:42;20.03;;;14.37;;
9124;SDS011;4597;48.730;9.114;2023-07-02T11:00:08;18.93;;;13.73;;
9124;SDS011;4597;48.730;9.114;2023-07-02T11:02:35;19.20;;;14.63;;
9124;SDS011;4597;48.730;9.114;2023-07-02T11:05:06;17.30;;;14.50;;
9124;SDS011;4597;48.730;9.114;2023-07-02T11:07:38;18.10;;;13.77;;
9124;SDS011;4597;48.730;9.114;2023-07-02T11:10:04;22.40;;;14.67;;
9124;SDS011;4597;48.730;9.114;2023-07-02T11:12:31;20.13;;;14.13;;
9124;SDS011;4597;48.730;9.114;2023-07-02T11:15:15;16.13;;;13.27;;
9124;SDS011;4597;48.730;9.114;2023-07-02T11:17:45;18.33;;;13.20;;
9124;SDS011;4597;48.730;9.114;2023-07-02T11:20:11;17.13;;;13.97;;
9124;SDS011;4597;48.730;9.114;2023-07-02T11:22:39;19.63;;;14.20;;
9124;SDS011;4597;48.730;9.114;2023-07-02T11:27:41;17.40;;;14.13;;
9124;SDS011;4597;48.730;9.114;2023-07-02T11:30:07;19.23;;;14.13;;
9124;SDS011;4597;48.730;9.114;2023-07-02T11:32:49;19.80;;;14.43;;
9124;SDS011;4597;48.730;9.114;2023-07-02T11:35:16;17.07;;;13.57;;
9124;SDS011;4597;48.730;9.114;2023-07-02T11:37:42;21.20;;;14.77;;
9124;SDS011;4597;48.730;9.114;2023-07-02T11:40:08;19.37;;;13.77;;
9124;SDS011;4597;48.730;9.114;2023-07-02T11:42:34;16.57;;;12.90;;
9124;SDS011;4597;48.730;9.114;2023-07-02T11:45:00;18.27;;;13.73;;
9124;SDS011;4597;48.730;9.114;2023-07-02T11:47:25;17.40;;;13.20;;
9124;SDS011;4597;48.730;9.114;2023-07-02T11:49:52;17.77;;;13.70;;
9124;SDS011;4597;48.730;9.114;2023-07-02T11:52:18;18.60;;;14.03;;
9124;SDS011;4597;48.730;9.114;2023-07-02T11:54:43;17.63;;;13.17;;
9124;SDS011;4597;48.730;9.114;2023-07-02T11:57:09;16.57;;;13.67;;
9124;SDS011;4597;48.730;9.114;2023-07-02T11:59:34;16.67;;;13.63;;
9124;SDS011;4597;48.730;9.114;2023-07-02T12:02:01;18.33;;;14.37;;
9124;SDS011;4597;48.730;9.114;2023-07-02T12:04:27;19.70;;;14.83;;
9124;SDS011;4597;48.730;9.114;2023-07-02T12:06:52;18.93;;;14.33;;
9124;SDS011;4597;48.730;9.114;2023-07-02T12:09:17;18.50;;;13.57;;
9124;SDS011;4597;48.730;9.114;2023-07-02T12:11:43;16.90;;;13.67;;
9124;SDS011;4597;48.730;9.114;2023-07-02T12:14:10;19.77;;;15.10;;
9124;SDS011;4597;48.730;9.114;2023-07-02T12:16:35;17.70;;;13.70;;
9124;SDS011;4597;48.730;9.114;2023-07-02T12:19:02;18.57;;;13.53;;
9124;SDS011;4597;48.730;9.114;2023-07-02T12:21:27;21.43;;;13.77;;
9124;SDS011;4597;48.730;9.114;2023-07-02T12:23:53;16.30;;;12.87;;
9124;SDS011;4597;48.730;9.114;2023-07-02T12:26:19;20.83;;;14.07;;
9124;SDS011;4597;48.730;9.114;2023-07-02T12:28:44;16.70;;;13.77;;
9124;SDS011;4597;48.730;9.114;2023-07-02T12:31:10;17.05;;;13.68;;
9124;SDS011;4597;48.730;9.114;2023-07-02T12:33:37;17.47;;;13.73;;
9124;SDS011;4597;48.730;9.114;2023-07-02T12:36:03;21.38;;;14.50;;
9124;SDS011;4597;48.730;9.114;2023-07-02T12:38:29;16.10;;;13.80;;
9124;SDS011;4597;48.730;9.114;2023-07-02T12:40:54;17.73;;;13.52;;
9124;SDS011;4597;48.730;9.114;2023-07-02T12:43:20;17.08;;;13.40;;
9124;SDS011;4597;48.730;9.114;2023-07-02T12:45:46;17.83;;;13.97;;
9124;SDS011;4597;48.730;9.114;2023-07-02T12:48:12;16.65;;;13.15;;
9124;SDS011;4597;48.730;9.114;2023-07-02T12:50:37;17.87;;;13.60;;
9124;SDS011;4597;48.730;9.114;2023-07-02T12:53:04;18.03;;;13.83;;
9124;SDS011;4597;48.730;9.114;2023-07-02T12:55:30;16.23;;;13.10;;
9124;SDS011;4597;48.730;9.114;2023-07-02T12:57:56;17.00;;;12.77;;
9124;SDS011;4597;48.730;9.114;2023-07-02T13:00:21;16.55;;;13.27;;
9124;SDS011;4597;48.730;9.114;2023-07-02T13:02:47;16.13;;;12.65;;
9124;SDS011;4597;48.730;9.114;2023-07-02T13:05:13;15.40;;;12.95;;
9124;SDS011;4597;48.730;9.114;2023-07-02T13:07:38;15.55;;;13.10;;
9124;SDS011;4597;48.730;9.114;2023-07-02T13:10:04;15.57;;;12.38;;
9124;SDS011;4597;48.730;9.114;2023-07-02T13:12:30;15.15;;;11.88;;
9124;SDS011;4597;48.730;9.114;2023-07-02T13:14:56;17.43;;;11.73;;
9124;SDS011;4597;48.730;9.114;2023-07-02T13:17:21;13.98;;;12.05;;
9124;SDS011;4597;48.730;9.114;2023-07-02T13:19:47;16.45;;;12.63;;
9124;SDS011;4597;48.730;9.114;2023-07-02T13:22:13;14.35;;;11.68;;
9124;SDS011;4597;48.730;9.114;2023-07-02T13:24:39;14.25;;;11.68;;
9124;SDS011;4597;48.730;9.114;2023-07-02T13:27:07;16.98;;;12.75;;
9124;SDS011;4597;48.730;9.114;2023-07-02T13:29:36;15.98;;;12.00;;
9124;SDS011;4597;48.730;9.114;2023-07-02T13:32:02;14.25;;;12.05;;
9124;SDS011;4597;48.730;9.114;2023-07-02T13:34:28;16.20;;;13.82;;
9124;SDS011;4597;48.730;9.114;2023-07-02T13:36:53;15.48;;;12.30;;
9124;SDS011;4597;48.730;9.114;2023-07-02T13:39:19;15.73;;;12.65;;
9124;SDS011;4597;48.730;9.114;2023-07-02T13:41:44;15.27;;;12.88;;
9124;SDS011;4597;48.730;9.114;2023-07-02T13:44:10;15.35;;;12.43;;
9124;SDS011;4597;48.730;9.114;2023-07-02T13:46:35;16.92;;;12.63;;
9124;SDS011;4597;48.730;9.114;2023-07-02T13:49:01;15.68;;;12.88;;
9124;SDS011;4597;48.730;9.114;2023-07-02T13:51:26;15.13;;;12.23;;
9124;SDS011;4597;48.730;9.114;2023-07-02T13:53:52;14.20;;;12.48;;
9124;SDS011;4597;48.730;9.114;2023-07-02T13:56:17;14.77;;;12.25;;
9124;SDS011;4597;48.730;9.114;2023-07-02T14:01:20;15.88;;;12.68;;
9124;SDS011;4597;48.730;9.114;2023-07-02T14:03:46;13.48;;;12.07;;
9124;SDS011;4597;48.730;9.114;2023-07-02T14:06:12;13.60;;;12.20;;
9124;SDS011;4597;48.730;9.114;2023-07-02T14:08:37;16.05;;;12.90;;
9124;SDS011;4597;48.730;9.114;2023-07-02T14:11:03;14.48;;;12.18;;
9124;SDS011;4597;48.730;9.114;2023-07-02T14:13:28;13.82;;;11.68;;
9124;SDS011;4597;48.730;9.114;2023-07-02T14:15:54;16.08;;;13.20;;
9124;SDS011;4597;48.730;9.114;2023-07-02T14:18:19;15.77;;;12.95;;
9124;SDS011;4597;48.730;9.114;2023-07-02T14:20:45;14.10;;;12.63;;
9124;SDS011;4597;48.730;9.114;2023-07-02T14:23:10;14.13;;;12.63;;
9124;SDS011;4597;48.730;9.114;2023-07-02T14:25:36;17.52;;;13.82;;
9124;SDS011;4597;48.730;9.114;2023-07-02T14:28:01;15.60;;;12.85;;
9124;SDS011;4597;48.730;9.114;2023-07-02T14:30:27;15.07;;;13.38;;
9124;SDS011;4597;48.730;9.114;2023-07-02T14:32:53;15.95;;;13.02;;
9124;SDS011;4597;48.730;9.114;2023-07-02T14:35:18;15.10;;;13.55;;
9124;SDS011;4597;48.730;9.114;2023-07-02T14:37:46;15.35;;;13.00;;
9124;SDS011;4597;48.730;9.114;2023-07-02T14:40:12;14.55;;;12.80;;
9124;SDS011;4597;48.730;9.114;2023-07-02T14:42:38;15.05;;;12.65;;
9124;SDS011;4597;48.730;9.114;2023-07-02T14:45:03;14.30;;;12.65;;
9124;SDS011;4597;48.730;9.114;2023-07-02T14:47:29;14.82;;;13.18;;
9124;SDS011;4597;48.730;9.114;2023-07-02T14:49:55;16.13;;;13.07;;
9124;SDS011;4597;48.730;9.114;2023-07-02T14:52:20;14.50;;;12.93;;
9124;SDS011;4597;48.730;9.114;2023-07-02T14:54:46;15.18;;;13.45;;
9124;SDS011;4597;48.730;9.114;2023-07-02T14:57:11;14.55;;;13.05;;
9124;SDS011;4597;48.730;9.114;2023-07-02T14:59:37;14.50;;;12.85;;
9124;SDS011;4597;48.730;9.114;2023-07-02T15:02:03;14.23;;;12.63;;
9124;SDS011;4597;48.730;9.114;2023-07-02T15:04:28;14.93;;;12.57;;
9124;SDS011;4597;48.730;9.114;2023-07-02T15:06:54;13.77;;;11.90;;
9124;SDS011;4597;48.730;9.114;2023-07-02T15:09:21;14.13;;;12.63;;